Amarillo, Texas
Current Conditions -  °F | °C
As of 3:53 PM on Friday 31 Oct 2014 (Local Time) from KAMA Reporting Station
Clear Clear  
Wind Chill: 61°   Ceiling: Unl
Heat Index: 61°   Visibility: 10mi
Dew Point: 29°   Wind: 8mph
Humidity: 30%   Direction: 120°ESE
Pressure: 30.36"   Gusts: NA
Location:  35.21°N, 101.83°W
Report Text: KAMA 312053Z 12007KT 10SM CLR 16/M02 A3036 RMK AO2 SLP261 T01611017 56031
Loading
Personal Weather Stations






























Interactive Weather Map New forecast layout! Learn more

10-Day Weather Forecast

Advertisements
Track Severe Weather on mobile